Time;durP1;ratioP1;P1;durP2;ratioP2;P2;SDS_P1;SDS_P2;PMS_P1;PMS_P2;Temp;Humidity;BMP_temperature;BMP_pressure;BME280_temperature;BME280_humidity;BME280_pressure;Samples;Min_cycle;Max_cycle;Signal;HPM_P1;HPM_P2
2021/07/10 00:00:41;;;;;;;;;14.25;13.75;;;;;-144.77;100.00;61770.03;4996461;28;8811;-79
2021/07/10 00:03:07;;;;;;;;;15.00;13.75;;;;;-144.77;100.00;61770.03;4996746;28;9649;-79
2021/07/10 00:05:33;;;;;;;;;16.75;13.50;;;;;-144.77;100.00;61770.03;4996251;28;8795;-79
2021/07/10 00:07:59;;;;;;;;;16.75;15.00;;;;;-144.77;100.00;61770.03;4995218;28;8865;-78
2021/07/10 00:10:25;;;;;;;;;15.75;15.50;;;;;-144.77;100.00;61770.03;4996550;28;9612;-78
2021/07/10 00:12:50;;;;;;;;;13.75;12.50;;;;;-144.77;100.00;61770.03;4996102;28;8898;-79
2021/07/10 00:15:19;;;;;;;;;16.50;14.25;;;;;-144.77;100.00;61770.03;4978705;28;8859;-79
2021/07/10 00:17:45;;;;;;;;;14.75;13.50;;;;;-144.77;100.00;61770.03;4996573;28;8936;-79
2021/07/10 00:20:12;;;;;;;;;14.00;13.75;;;;;-144.77;100.00;61770.03;4996218;28;8940;-79
2021/07/10 00:22:38;;;;;;;;;15.75;13.00;;;;;-144.77;100.00;61770.03;4996168;28;8824;-79
2021/07/10 00:25:09;;;;;;;;;12.25;12.25;;;;;-144.77;100.00;61770.03;4983903;28;8754;-79
2021/07/10 00:27:35;;;;;;;;;12.25;12.25;;;;;-144.77;100.00;61770.03;4978635;28;8805;-79
2021/07/10 00:30:02;;;;;;;;;15.50;15.00;;;;;-144.77;100.00;61770.03;4996355;28;9595;-79
2021/07/10 00:32:28;;;;;;;;;15.50;13.00;;;;;-144.77;100.00;61770.03;4975282;28;8836;-79
2021/07/10 00:34:53;;;;;;;;;14.75;13.00;;;;;-144.77;100.00;61770.03;4993162;28;8841;-79
2021/07/10 00:37:18;;;;;;;;;14.00;13.75;;;;;-144.77;100.00;61770.03;4975432;28;8874;-79
2021/07/10 00:39:44;;;;;;;;;13.50;12.75;;;;;-144.77;100.00;61770.03;4994873;28;8830;-79
2021/07/10 00:42:09;;;;;;;;;15.50;12.75;;;;;-144.77;100.00;61770.03;4995975;28;8837;-79
2021/07/10 00:44:35;;;;;;;;;14.25;12.50;;;;;-144.77;100.00;61770.03;4996036;28;8823;-79
2021/07/10 00:47:00;;;;;;;;;13.75;13.75;;;;;-144.77;100.00;61770.03;4996111;28;9542;-79
2021/07/10 00:49:26;;;;;;;;;18.00;13.50;;;;;-144.77;100.00;61770.03;4995675;28;8960;-79
2021/07/10 00:51:52;;;;;;;;;11.00;9.50;;;;;-144.77;100.00;61770.03;4995827;28;8845;-79
2021/07/10 00:54:17;;;;;;;;;12.00;11.00;;;;;-144.77;100.00;61770.03;4995905;28;8850;-79
2021/07/10 00:56:45;;;;;;;;;10.75;10.25;;;;;-144.77;100.00;61770.03;4995973;28;8809;-79
2021/07/10 00:59:13;;;;;;;;;11.75;9.75;;;;;-144.77;100.00;61770.03;4995780;28;8832;-79
2021/07/10 01:01:39;;;;;;;;;13.25;11.25;;;;;-144.77;100.00;61770.03;4995807;28;8813;-79
2021/07/10 01:04:05;;;;;;;;;12.00;12.00;;;;;-144.77;100.00;61770.03;4995804;28;9010;-79
2021/07/10 01:06:30;;;;;;;;;14.25;10.25;;;;;-144.77;100.00;61770.03;4995741;28;8817;-79
2021/07/10 01:08:56;;;;;;;;;13.50;12.00;;;;;-144.77;100.00;61770.03;4995255;28;8818;-79
2021/07/10 01:11:22;;;;;;;;;14.00;13.50;;;;;-144.77;100.00;61770.03;4995628;28;8813;-79
2021/07/10 01:13:48;;;;;;;;;12.25;11.50;;;;;-144.77;100.00;61770.03;4995231;28;8849;-79
2021/07/10 01:16:13;;;;;;;;;13.00;12.25;;;;;-144.77;100.00;61770.03;4995623;28;8789;-79
2021/07/10 01:18:39;;;;;;;;;9.25;9.25;;;;;-144.77;100.00;61770.03;4995503;28;8817;-78
2021/07/10 01:21:04;;;;;;;;;14.75;14.50;;;;;-144.77;100.00;61770.03;4995060;28;8906;-79
2021/07/10 01:23:30;;;;;;;;;12.50;12.25;;;;;-144.77;100.00;61770.03;4995152;28;8863;-79
2021/07/10 01:25:55;;;;;;;;;12.50;11.75;;;;;-144.77;100.00;61770.03;4995568;28;8809;-79
2021/07/10 01:28:21;;;;;;;;;12.50;12.25;;;;;-144.77;100.00;61770.03;4995434;28;8814;-79
2021/07/10 01:30:48;;;;;;;;;12.50;10.50;;;;;-144.77;100.00;61770.03;4974855;28;8913;-79
2021/07/10 01:33:13;;;;;;;;;12.00;9.25;;;;;-144.77;100.00;61770.03;4991432;28;8836;-78
2021/07/10 01:35:40;;;;;;;;;15.25;12.25;;;;;-144.77;100.00;61770.03;4995339;28;8806;-78
2021/07/10 01:38:09;;;;;;;;;11.25;11.25;;;;;-144.77;100.00;61770.03;4977578;28;9613;-78
2021/07/10 01:40:36;;;;;;;;;14.00;10.50;;;;;-144.77;100.00;61770.03;4995467;28;8793;-79
2021/07/10 01:43:03;;;;;;;;;14.75;12.75;;;;;-144.77;100.00;61770.03;4995018;28;8785;-79
2021/07/10 01:45:31;;;;;;;;;15.00;14.25;;;;;-144.77;100.00;61770.03;4995294;28;8868;-79
2021/07/10 01:47:57;;;;;;;;;9.75;9.75;;;;;-144.77;100.00;61770.03;4995055;28;8790;-78
2021/07/10 01:50:23;;;;;;;;;11.25;10.50;;;;;-144.77;100.00;61770.03;4974118;28;8840;-78
2021/07/10 01:52:49;;;;;;;;;13.25;12.00;;;;;-144.77;100.00;61770.03;4994364;28;8934;-79
2021/07/10 01:55:16;;;;;;;;;12.00;11.50;;;;;-144.77;100.00;61770.03;4995119;28;8805;-79
2021/07/10 01:57:44;;;;;;;;;11.25;9.75;;;;;-144.77;100.00;61770.03;4977606;28;8818;-78
2021/07/10 02:00:13;;;;;;;;;13.00;12.25;;;;;-144.77;100.00;61770.03;4995144;28;8809;-79
2021/07/10 02:02:39;;;;;;;;;12.00;11.75;;;;;-144.77;100.00;61770.03;4978070;28;8829;-79
2021/07/10 02:05:06;;;;;;;;;10.25;9.50;;;;;-144.77;100.00;61770.03;4973868;28;8834;-79
2021/07/10 02:07:31;;;;;;;;;11.75;10.50;;;;;-144.77;100.00;61770.03;4993845;28;8901;-79
2021/07/10 02:09:57;;;;;;;;;13.25;11.75;;;;;-144.77;100.00;61770.03;4965394;28;8855;-79
2021/07/10 02:12:23;;;;;;;;;12.25;10.25;;;;;-144.77;100.00;61770.03;4992244;28;8865;-78
2021/07/10 02:14:48;;;;;;;;;12.75;9.75;;;;;-144.77;100.00;61770.03;4994530;28;8895;-78
2021/07/10 02:17:14;;;;;;;;;13.50;11.50;;;;;-144.77;100.00;61770.03;4977164;28;8864;-79
2021/07/10 02:19:39;;;;;;;;;15.75;10.50;;;;;-144.77;100.00;61770.03;4994656;28;8872;-78
2021/07/10 02:22:07;;;;;;;;;10.25;9.50;;;;;-144.77;100.00;61770.03;4997571;28;8829;-78
2021/07/10 02:24:33;;;;;;;;;11.75;10.00;;;;;-144.77;100.00;61770.03;4986172;28;8812;-79
2021/07/10 02:26:59;;;;;;;;;9.25;9.00;;;;;-144.77;100.00;61770.03;4997450;28;8786;-78
2021/07/10 02:29:24;;;;;;;;;10.75;10.50;;;;;-144.77;100.00;61770.03;4998003;28;8844;-79
2021/07/10 02:31:50;;;;;;;;;11.75;9.00;;;;;-144.77;100.00;61770.03;4997928;28;8841;-79
2021/07/10 02:34:15;;;;;;;;;10.50;9.00;;;;;-144.77;100.00;61770.03;4997899;28;8824;-78
2021/07/10 02:36:41;;;;;;;;;11.75;10.25;;;;;-144.77;100.00;61770.03;4997852;28;8809;-78
2021/07/10 02:39:07;;;;;;;;;13.00;9.75;;;;;-144.77;100.00;61770.03;4997981;28;8817;-78
2021/07/10 02:41:33;;;;;;;;;11.25;10.25;;;;;-144.77;100.00;61770.03;4997703;28;8882;-78
2021/07/10 02:43:58;;;;;;;;;9.50;9.50;;;;;-144.77;100.00;61770.03;4997645;28;8817;-78
2021/07/10 02:46:24;;;;;;;;;10.25;10.25;;;;;-144.77;100.00;61770.03;4997904;28;8821;-78
2021/07/10 02:48:49;;;;;;;;;10.25;8.50;;;;;-144.77;100.00;61770.03;4980021;28;8837;-78
2021/07/10 02:51:15;;;;;;;;;10.75;10.50;;;;;-144.77;100.00;61770.03;4973740;28;9572;-79
2021/07/10 02:53:41;;;;;;;;;11.00;10.75;;;;;-144.77;100.00;61770.03;4990635;28;8826;-78
2021/07/10 02:56:07;;;;;;;;;10.00;9.50;;;;;-144.77;100.00;61770.03;4997603;28;9530;-78
2021/07/10 02:58:32;;;;;;;;;12.50;9.75;;;;;-144.77;100.00;61770.03;4976649;28;10231;-78
2021/07/10 03:00:58;;;;;;;;;10.50;9.00;;;;;-144.77;100.00;61770.03;4997105;28;8814;-78
2021/07/10 03:03:24;;;;;;;;;11.50;8.00;;;;;-144.77;100.00;61770.03;4997498;28;8846;-78
2021/07/10 03:05:50;;;;;;;;;13.25;9.75;;;;;-144.77;100.00;61770.03;4997055;28;8920;-78
2021/07/10 03:08:15;;;;;;;;;10.50;9.50;;;;;-144.77;100.00;61770.03;4997590;28;8751;-78
2021/07/10 03:10:42;;;;;;;;;11.00;9.75;;;;;-144.77;100.00;61770.03;4997314;28;9670;-78
2021/07/10 03:13:08;;;;;;;;;10.25;9.50;;;;;-144.77;100.00;61770.03;4997135;28;8825;-77
2021/07/10 03:15:34;;;;;;;;;7.00;7.00;;;;;-144.77;100.00;61770.03;4997132;28;8782;-78
2021/07/10 03:18:00;;;;;;;;;9.50;9.00;;;;;-144.77;100.00;61770.03;4997394;28;8790;-78
2021/07/10 03:20:26;;;;;;;;;11.25;10.25;;;;;-144.77;100.00;61770.03;4996692;28;8806;-78
2021/07/10 03:22:52;;;;;;;;;12.25;10.75;;;;;-144.77;100.00;61770.03;4997164;28;8815;-78
2021/07/10 03:25:19;;;;;;;;;13.25;10.25;;;;;-144.77;100.00;61770.03;4984507;28;8832;-78
2021/07/10 03:27:47;;;;;;;;;11.75;11.75;;;;;-144.77;100.00;61770.03;4997535;28;8782;-78
2021/07/10 03:30:16;;;;;;;;;10.25;9.00;;;;;-144.77;100.00;61770.03;4997366;28;8893;-78
2021/07/10 03:32:41;;;;;;;;;11.00;9.00;;;;;-144.77;100.00;61770.03;4996682;28;8798;-78
2021/07/10 03:35:09;;;;;;;;;9.25;8.50;;;;;-144.77;100.00;61770.03;4996922;28;9145;-78
2021/07/10 03:37:35;;;;;;;;;8.25;8.25;;;;;-144.77;100.00;61770.03;4997063;28;8832;-78
2021/07/10 03:40:04;;;;;;;;;10.50;10.00;;;;;-144.77;100.00;61770.03;4997190;28;9657;-78
2021/07/10 03:42:29;;;;;;;;;10.75;10.75;;;;;-144.77;100.00;61770.03;4996826;28;9712;-78
2021/07/10 03:44:55;;;;;;;;;12.25;10.50;;;;;-144.77;100.00;61770.03;4979365;28;8838;-79
2021/07/10 03:47:20;;;;;;;;;10.50;9.25;;;;;-144.77;100.00;61770.03;4997035;28;9713;-78
2021/07/10 03:49:46;;;;;;;;;10.75;9.00;;;;;-144.77;100.00;61770.03;4996857;28;8798;-79
2021/07/10 03:52:11;;;;;;;;;12.50;10.50;;;;;-144.77;100.00;61770.03;4996783;28;8837;-79
2021/07/10 03:54:37;;;;;;;;;13.25;11.00;;;;;-144.77;100.00;61770.03;4997015;28;8793;-79
2021/07/10 03:57:02;;;;;;;;;10.25;10.00;;;;;-144.77;100.00;61770.03;4996673;28;8825;-79
2021/07/10 03:59:28;;;;;;;;;11.50;11.50;;;;;-144.77;100.00;61770.03;4975796;28;8926;-79
2021/07/10 04:01:53;;;;;;;;;12.50;12.50;;;;;-144.77;100.00;61770.03;4991518;28;8821;-83
2021/07/10 04:04:19;;;;;;;;;10.75;10.50;;;;;-144.77;100.00;61770.03;4996851;28;8798;-81
2021/07/10 04:06:44;;;;;;;;;10.00;9.75;;;;;-144.77;100.00;61770.03;4997314;28;8801;-81
2021/07/10 04:09:10;;;;;;;;;13.50;12.00;;;;;-144.77;100.00;61770.03;4979406;28;8880;-81
2021/07/10 04:11:36;;;;;;;;;11.50;11.00;;;;;-144.77;100.00;61770.03;4997298;28;8920;-81
2021/07/10 04:14:02;;;;;;;;;17.00;13.00;;;;;-144.77;100.00;61770.03;4996665;28;8833;-82
2021/07/10 04:16:28;;;;;;;;;11.25;11.25;;;;;-144.77;100.00;61770.03;4986366;28;9906;-81
2021/07/10 04:18:53;;;;;;;;;13.25;10.25;;;;;-144.77;100.00;61770.03;4996911;28;8928;-81
2021/07/10 04:21:19;;;;;;;;;10.25;10.25;;;;;-144.77;100.00;61770.03;4996496;28;8854;-82
2021/07/10 04:23:44;;;;;;;;;13.75;11.75;;;;;-144.77;100.00;61770.03;4991450;28;8923;-81
2021/07/10 04:26:10;;;;;;;;;10.25;10.25;;;;;-144.77;100.00;61770.03;4972147;28;8856;-82
2021/07/10 04:28:35;;;;;;;;;16.00;12.75;;;;;-144.77;100.00;61770.03;4996634;28;8797;-83
2021/07/10 04:31:01;;;;;;;;;15.25;11.00;;;;;-144.77;100.00;61770.03;4996762;28;8840;-83
2021/07/10 04:33:27;;;;;;;;;12.75;11.25;;;;;-144.77;100.00;61770.03;4996473;28;9643;-83
2021/07/10 04:35:52;;;;;;;;;15.75;12.50;;;;;-144.77;100.00;61770.03;4996434;28;8794;-83
2021/07/10 04:38:20;;;;;;;;;11.25;11.25;;;;;-144.77;100.00;61770.03;4996633;28;8999;-83
2021/07/10 04:40:46;;;;;;;;;13.00;13.00;;;;;-144.77;100.00;61770.03;4979037;28;8820;-83
2021/07/10 04:43:12;;;;;;;;;10.50;10.00;;;;;-144.77;100.00;61770.03;4995540;28;8899;-82
2021/07/10 04:45:39;;;;;;;;;12.00;11.50;;;;;-144.77;100.00;61770.03;4978812;28;8864;-82
2021/07/10 04:48:05;;;;;;;;;13.75;11.75;;;;;-144.77;100.00;61770.03;4996878;28;8903;-83
2021/07/10 04:50:31;;;;;;;;;13.25;12.00;;;;;-144.77;100.00;61770.03;4996088;28;8762;-83
2021/07/10 04:52:56;;;;;;;;;10.75;10.75;;;;;-144.77;100.00;61770.03;4996400;28;9577;-83
2021/07/10 04:55:22;;;;;;;;;10.50;10.50;;;;;-144.77;100.00;61770.03;4996212;28;8814;-83
2021/07/10 04:57:48;;;;;;;;;11.00;9.25;;;;;-144.77;100.00;61770.03;4996394;28;8806;-83
2021/07/10 05:00:16;;;;;;;;;10.75;9.25;;;;;-144.77;100.00;61770.03;4996286;28;8896;-82
2021/07/10 05:02:42;;;;;;;;;10.75;10.25;;;;;-144.77;100.00;61770.03;4996521;28;8919;-83
2021/07/10 05:05:09;;;;;;;;;10.50;10.50;;;;;-144.77;100.00;61770.03;4996055;28;8786;-83
2021/07/10 05:07:34;;;;;;;;;10.00;10.00;;;;;-144.77;100.00;61770.03;4996127;28;8813;-83
2021/07/10 05:10:00;;;;;;;;;8.00;8.00;;;;;-144.77;100.00;61770.03;4996227;28;8896;-83
2021/07/10 05:12:25;;;;;;;;;9.25;9.25;;;;;-144.77;100.00;61770.03;4995928;28;8864;-83
2021/07/10 05:14:52;;;;;;;;;11.75;9.00;;;;;-144.77;100.00;61770.03;4990980;28;8852;-83
2021/07/10 05:17:21;;;;;;;;;11.00;10.00;;;;;-144.77;100.00;61770.03;4995974;28;8762;-83
2021/07/10 05:19:48;;;;;;;;;11.75;10.25;;;;;-144.77;100.00;61770.03;4995945;28;8774;-83
2021/07/10 05:22:14;;;;;;;;;13.25;9.50;;;;;-144.77;100.00;61770.03;4991900;28;8860;-83
2021/07/10 05:24:39;;;;;;;;;10.75;10.75;;;;;-144.77;100.00;61770.03;4983259;28;8928;-83
2021/07/10 05:27:06;;;;;;;;;12.75;11.50;;;;;-144.77;100.00;61770.03;4975367;28;8836;-83
2021/07/10 05:29:32;;;;;;;;;14.50;12.50;;;;;-144.77;100.00;61770.03;4988141;28;8975;-84
2021/07/10 05:31:58;;;;;;;;;27.00;25.50;;;;;-144.77;100.00;61770.03;4974990;28;8850;-84
2021/07/10 05:34:24;;;;;;;;;22.00;21.50;;;;;-144.77;100.00;61770.03;4989549;28;8850;-84
2021/07/10 05:36:49;;;;;;;;;13.75;13.00;;;;;-144.77;100.00;61770.03;4965414;28;8821;-84
2021/07/10 05:39:15;;;;;;;;;13.75;13.00;;;;;-144.77;100.00;61770.03;4995803;28;8856;-83
2021/07/10 05:41:41;;;;;;;;;20.50;18.25;;;;;-144.77;100.00;61770.03;4995981;28;8810;-83
2021/07/10 05:44:07;;;;;;;;;33.00;28.75;;;;;-144.77;100.00;61770.03;4995516;28;8806;-84
2021/07/10 05:46:32;;;;;;;;;25.75;24.00;;;;;-144.77;100.00;61770.03;4978153;28;8805;-84
2021/07/10 05:48:59;;;;;;;;;14.50;14.25;;;;;-144.77;100.00;61770.03;4995480;28;9457;-84
2021/07/10 05:51:30;;;;;;;;;14.75;14.00;;;;;-144.77;100.00;61770.03;4977964;28;8798;-84
2021/07/10 05:53:56;;;;;;;;;14.25;12.00;;;;;-144.77;100.00;61770.03;4977874;28;8809;-83
2021/07/10 05:56:21;;;;;;;;;11.00;11.00;;;;;-144.77;100.00;61770.03;4999252;28;8822;-84
2021/07/10 05:58:49;;;;;;;;;11.75;11.75;;;;;-144.77;100.00;61770.03;4998907;28;8848;-84
2021/07/10 06:01:14;;;;;;;;;11.50;11.50;;;;;-144.77;100.00;61770.03;4999280;28;8801;-84
2021/07/10 06:03:40;;;;;;;;;12.25;12.25;;;;;-144.77;100.00;61770.03;4998726;28;8806;-84
2021/07/10 06:06:19;;;;;;;;;;;;;;;;;;;;;
2021/07/10 06:08:44;;;;;;;;;16.25;11.25;;;;;-144.77;100.00;61770.03;4997946;28;35995;-85
2021/07/10 06:11:10;;;;;;;;;9.75;9.75;;;;;-144.77;100.00;61770.03;4999031;28;8804;-85
2021/07/10 06:13:36;;;;;;;;;12.75;12.25;;;;;-144.77;100.00;61770.03;4998382;28;9715;-84
2021/07/10 06:16:17;;;;;;;;;;;;;;;;;;;;;
2021/07/10 06:18:45;;;;;;;;;10.75;10.25;;;;;-144.77;100.00;61770.03;4997811;28;37167;-87
2021/07/10 06:21:11;;;;;;;;;13.50;11.25;;;;;-144.77;100.00;61770.03;4984609;28;8797;-83
2021/07/10 06:23:43;;;;;;;;;15.00;11.25;;;;;-144.77;100.00;61770.03;4994316;28;9625;-84
2021/07/10 06:26:09;;;;;;;;;5.75;3.75;;;;;-144.77;100.00;61770.03;4973864;28;8805;-83
2021/07/10 06:28:35;;;;;;;;;15.50;12.25;;;;;-144.77;100.00;61770.03;4998783;28;8817;-84
2021/07/10 06:31:00;;;;;;;;;11.25;9.75;;;;;-144.77;100.00;61770.03;4981054;28;8842;-84
2021/07/10 06:33:26;;;;;;;;;12.75;11.75;;;;;-144.77;100.00;61770.03;4998324;28;8821;-83
2021/07/10 06:35:51;;;;;;;;;10.75;10.75;;;;;-144.77;100.00;61770.03;4998446;28;8801;-83
2021/07/10 06:38:17;;;;;;;;;10.00;9.00;;;;;-144.77;100.00;61770.03;4998517;28;8840;-83
2021/07/10 06:40:44;;;;;;;;;12.00;10.00;;;;;-144.77;100.00;61770.03;4998689;28;8956;-83
2021/07/10 06:43:33;;;;;;;;;13.00;11.75;;;;;-144.77;100.00;61770.03;4985515;28;8798;-84
2021/07/10 06:45:59;;;;;;;;;13.75;9.25;;;;;-144.77;100.00;61770.03;4996950;28;8811;-83
2021/07/10 06:48:24;;;;;;;;;11.50;11.25;;;;;-144.77;100.00;61770.03;4998582;28;8904;-82
2021/07/10 06:50:50;;;;;;;;;11.75;10.50;;;;;-144.77;100.00;61770.03;4967458;28;8834;-82
2021/07/10 06:53:21;;;;;;;;;14.75;11.00;;;;;-144.77;100.00;61770.03;4998100;28;8830;-82
2021/07/10 06:55:49;;;;;;;;;12.00;10.00;;;;;-144.77;100.00;61770.03;4998327;28;9691;-82
2021/07/10 06:58:15;;;;;;;;;10.50;10.25;;;;;-144.77;100.00;61770.03;4989138;28;8828;-83
2021/07/10 07:00:40;;;;;;;;;12.00;10.00;;;;;-144.77;100.00;61770.03;4998177;28;8798;-83
2021/07/10 07:03:06;;;;;;;;;12.50;10.00;;;;;-144.77;100.00;61770.03;4977295;28;8827;-82
2021/07/10 07:05:31;;;;;;;;;10.25;10.25;;;;;-144.77;100.00;61770.03;4982902;28;8808;-83
2021/07/10 07:07:59;;;;;;;;;11.00;11.00;;;;;-144.77;100.00;61770.03;4971126;28;9736;-83
2021/07/10 07:10:25;;;;;;;;;10.25;9.50;;;;;-144.77;100.00;61770.03;4994113;28;8813;-84
2021/07/10 07:12:50;;;;;;;;;12.50;11.75;;;;;-144.77;100.00;61770.03;4997625;28;8822;-84
2021/07/10 07:15:16;;;;;;;;;13.50;9.25;;;;;-144.77;100.00;61770.03;4997896;28;8810;-83
2021/07/10 07:17:42;;;;;;;;;11.75;11.75;;;;;-144.77;100.00;61770.03;4998043;28;8822;-83
2021/07/10 07:20:12;;;;;;;;;12.75;10.75;;;;;-144.77;100.00;61770.03;4997806;28;8920;-83
2021/07/10 07:22:43;;;;;;;;;11.50;10.50;;;;;-144.77;100.00;61770.03;4997712;28;8888;-83
2021/07/10 07:25:10;;;;;;;;;14.50;13.00;;;;;-144.77;100.00;61770.03;4985242;28;8802;-84
2021/07/10 07:27:38;;;;;;;;;10.50;10.00;;;;;-144.77;100.00;61770.03;4980125;28;8818;-84
2021/07/10 07:30:08;;;;;;;;;11.00;9.25;;;;;-144.77;100.00;61770.03;4997795;28;8805;-83
2021/07/10 07:32:35;;;;;;;;;10.00;9.00;;;;;-144.77;100.00;61770.03;4980112;28;8802;-90
2021/07/10 07:35:02;;;;;;;;;14.75;10.00;;;;;-144.77;100.00;61770.03;4997511;28;8833;-89
2021/07/10 07:37:49;;;;;;;;;;;;;;;;;;;;;
2021/07/10 07:40:20;;;;;;;;;9.00;8.50;;;;;-144.77;100.00;61770.03;4986145;28;35945;-89
2021/07/10 07:49:27;;;;;;;;;11.25;10.00;;;;;-144.77;100.00;61770.03;4947049;28;8817;-90
2021/07/10 07:51:57;;;;;;;;;11.50;9.75;;;;;-144.77;100.00;61770.03;4979736;28;8861;-89
2021/07/10 07:54:25;;;;;;;;;12.25;11.00;;;;;-144.77;100.00;61770.03;4997228;28;8806;-87
2021/07/10 07:56:50;;;;;;;;;12.75;11.75;;;;;-144.77;100.00;61770.03;4997403;28;8794;-87
2021/07/10 07:59:16;;;;;;;;;11.25;9.75;;;;;-144.77;100.00;61770.03;4997019;28;8847;-88
2021/07/10 08:01:41;;;;;;;;;11.50;9.75;;;;;-144.77;100.00;61770.03;4997403;28;8821;-89
2021/07/10 08:04:07;;;;;;;;;12.00;10.00;;;;;-144.77;100.00;61770.03;4998247;28;8841;-89
2021/07/10 08:06:33;;;;;;;;;8.50;8.50;;;;;-144.77;100.00;61770.03;4997247;28;8842;-88
2021/07/10 08:08:58;;;;;;;;;12.75;10.00;;;;;-144.77;100.00;61770.03;4997000;28;8856;-87
2021/07/10 08:11:24;;;;;;;;;12.50;9.00;;;;;-144.77;100.00;61770.03;4979466;28;8825;-85
2021/07/10 08:13:49;;;;;;;;;9.00;9.00;;;;;-144.77;100.00;61770.03;4984996;28;8863;-87
2021/07/10 08:16:15;;;;;;;;;8.50;8.00;;;;;-144.77;100.00;61770.03;4997019;28;8854;-81
2021/07/10 08:18:40;;;;;;;;;11.50;10.25;;;;;-144.77;100.00;61770.03;4994400;28;8842;-81
2021/07/10 08:21:07;;;;;;;;;13.00;10.25;;;;;-144.77;100.00;61770.03;4996358;28;8822;-81
2021/07/10 08:23:33;;;;;;;;;11.00;7.75;;;;;-144.77;100.00;61770.03;4992031;28;8864;-81
2021/07/10 08:25:58;;;;;;;;;9.25;9.25;;;;;-144.77;100.00;61770.03;4987376;28;8815;-81
2021/07/10 08:28:24;;;;;;;;;11.25;9.00;;;;;-144.77;100.00;61770.03;4995796;28;8841;-81
2021/07/10 08:30:49;;;;;;;;;14.50;10.50;;;;;-144.77;100.00;61770.03;4996819;28;8826;-81
2021/07/10 08:33:15;;;;;;;;;10.00;7.25;;;;;-144.77;100.00;61770.03;4996421;28;8889;-81
2021/07/10 08:35:40;;;;;;;;;13.50;10.25;;;;;-144.77;100.00;61770.03;4995238;28;8849;-81
2021/07/10 08:38:06;;;;;;;;;8.00;7.50;;;;;-144.77;100.00;61770.03;4996540;28;8870;-81
2021/07/10 08:40:32;;;;;;;;;11.50;9.50;;;;;-144.77;100.00;61770.03;4996875;28;8774;-82
2021/07/10 08:42:58;;;;;;;;;7.00;7.00;;;;;-144.77;100.00;61770.03;4995160;28;8827;-81
2021/07/10 08:45:32;;;;;;;;;9.75;9.50;;;;;-144.77;100.00;61770.03;4996766;28;9555;-82
2021/07/10 08:47:58;;;;;;;;;11.75;9.50;;;;;-144.77;100.00;61770.03;4996608;28;8850;-82
2021/07/10 08:50:24;;;;;;;;;11.00;8.50;;;;;-144.77;100.00;61770.03;5011310;28;8933;-81
2021/07/10 08:52:51;;;;;;;;;7.50;7.50;;;;;-144.77;100.00;61770.03;4996114;28;8843;-82
2021/07/10 08:55:16;;;;;;;;;9.00;9.00;;;;;-144.77;100.00;61770.03;4996665;28;9713;-83
2021/07/10 08:57:43;;;;;;;;;10.75;7.00;;;;;-144.77;100.00;61770.03;4996124;28;8985;-83
2021/07/10 09:00:13;;;;;;;;;7.50;7.50;;;;;-144.77;100.00;61770.03;4996595;28;8830;-82
2021/07/10 09:02:44;;;;;;;;;8.00;7.00;;;;;-144.77;100.00;61770.03;4996166;28;8937;-82
2021/07/10 09:05:11;;;;;;;;;7.75;6.00;;;;;-144.77;100.00;61770.03;4983846;28;8786;-82
2021/07/10 09:08:16;;;;;;;;;8.50;6.75;;;;;-144.77;100.00;61770.03;4994428;28;8853;-83
2021/07/10 09:10:44;;;;;;;;;9.75;7.00;;;;;-144.77;100.00;61770.03;4996228;28;8814;-83
2021/07/10 09:13:10;;;;;;;;;7.50;7.00;;;;;-144.77;100.00;61770.03;4996105;28;8781;-83
2021/07/10 09:15:36;;;;;;;;;6.25;6.25;;;;;-144.77;100.00;61770.03;4995960;28;8786;-83
2021/07/10 09:18:06;;;;;;;;;8.25;6.50;;;;;-144.77;100.00;61770.03;4996456;28;8875;-83
2021/07/10 09:20:32;;;;;;;;;9.00;7.25;;;;;-144.77;100.00;61770.03;4995794;28;8753;-83
2021/07/10 09:22:58;;;;;;;;;6.25;5.00;;;;;-144.77;100.00;61770.03;4994823;28;8900;-83
2021/07/10 09:25:29;;;;;;;;;5.75;5.50;;;;;-144.77;100.00;61770.03;4978224;28;8829;-84
2021/07/10 09:28:02;;;;;;;;;5.75;5.75;;;;;-144.77;100.00;61770.03;4995924;28;9624;-84
2021/07/10 09:30:40;;;;;;;;;6.00;5.25;;;;;-144.77;100.00;61770.03;4995598;28;8835;-84
2021/07/10 09:33:19;;;;;;;;;6.25;4.50;;;;;-144.77;100.00;61770.03;4977422;28;8845;-83
2021/07/10 09:35:55;;;;;;;;;4.00;2.75;;;;;-144.77;100.00;61770.03;4995225;28;8821;-84
2021/07/10 09:38:26;;;;;;;;;3.50;3.00;;;;;-144.77;100.00;61770.03;4995371;28;8962;-84
2021/07/10 09:40:57;;;;;;;;;2.00;2.00;;;;;-144.77;100.00;61770.03;4977922;28;9082;-84
2021/07/10 09:43:40;;;;;;;;;4.00;2.25;;;;;-144.77;100.00;61770.03;4995190;28;8806;-84
2021/07/10 09:46:08;;;;;;;;;3.00;3.00;;;;;-144.77;100.00;61770.03;4995295;28;8823;-84
2021/07/10 09:48:42;;;;;;;;;1.75;1.75;;;;;-144.77;100.00;61770.03;4995607;28;8774;-83
2021/07/10 09:51:26;;;;;;;;;1.75;1.75;;;;;-144.77;100.00;61770.03;4995386;28;8927;-82
2021/07/10 09:54:03;;;;;;;;;3.75;2.00;;;;;-144.77;100.00;61770.03;4995326;28;8846;-81
2021/07/10 09:56:32;;;;;;;;;0.75;0.75;;;;;-144.77;100.00;61770.03;4995516;28;8894;-82
2021/07/10 09:58:58;;;;;;;;;2.75;2.75;;;;;-144.77;100.00;61770.03;4995797;28;9943;-82
2021/07/10 10:01:28;;;;;;;;;3.75;2.75;;;;;-144.77;100.00;61770.03;4995368;28;8825;-83
2021/07/10 10:03:54;;;;;;;;;3.50;2.75;;;;;-144.77;100.00;61770.03;4992700;28;8758;-83
2021/07/10 10:06:34;;;;;;;;;3.75;3.25;;;;;-144.77;100.00;61770.03;4966840;28;9514;-83
2021/07/10 10:09:03;;;;;;;;;5.50;3.50;;;;;-144.77;100.00;61770.03;4995129;28;8790;-84
2021/07/10 10:11:53;;;;;;;;;2.75;2.75;;;;;-144.77;100.00;61770.03;4995243;28;8928;-83
2021/07/10 10:14:20;;;;;;;;;3.75;3.75;;;;;-144.77;100.00;61770.03;4987927;28;8802;-83
2021/07/10 10:16:49;;;;;;;;;4.00;3.25;;;;;-144.77;100.00;61770.03;4995028;28;8794;-83
2021/07/10 10:19:25;;;;;;;;;5.75;4.75;;;;;-144.77;100.00;61770.03;4995209;28;8793;-82
2021/07/10 10:21:54;;;;;;;;;2.00;0.75;;;;;-144.77;100.00;61770.03;4994982;28;8746;-83
2021/07/10 10:24:22;;;;;;;;;5.25;3.75;;;;;-144.77;100.00;61770.03;4984889;28;8800;-83
2021/07/10 10:26:49;;;;;;;;;2.75;2.00;;;;;-144.77;100.00;61770.03;4992753;28;8821;-83
2021/07/10 10:29:16;;;;;;;;;4.00;3.00;;;;;-144.77;100.00;61770.03;4994924;28;8774;-84
2021/07/10 10:31:43;;;;;;;;;2.75;2.75;;;;;-144.77;100.00;61770.03;4994762;28;8786;-83
2021/07/10 10:34:10;;;;;;;;;4.00;4.00;;;;;-144.77;100.00;61770.03;4974035;28;8825;-84
2021/07/10 10:36:38;;;;;;;;;6.75;6.75;;;;;-144.77;100.00;61770.03;4993770;28;8770;-84
2021/07/10 10:39:10;;;;;;;;;4.50;4.00;;;;;-144.77;100.00;61770.03;4994956;28;8816;-84
2021/07/10 10:41:44;;;;;;;;;4.00;3.75;;;;;-144.77;100.00;61770.03;4965493;28;8817;-84
2021/07/10 10:44:11;;;;;;;;;3.00;3.00;;;;;-144.77;100.00;61770.03;4978526;28;8812;-83
2021/07/10 10:46:48;;;;;;;;;3.75;3.25;;;;;-144.77;100.00;61770.03;4998556;28;8798;-84
2021/07/10 10:49:32;;;;;;;;;3.50;3.50;;;;;-144.77;100.00;61770.03;4980355;28;9737;-84
2021/07/10 10:52:33;;;;;;;;;3.00;3.00;;;;;-144.77;100.00;61770.03;4998045;28;8798;-83
2021/07/10 10:55:08;;;;;;;;;4.50;3.00;;;;;-144.77;100.00;61770.03;4987821;28;8826;-83
2021/07/10 10:57:57;;;;;;;;;4.00;3.00;;;;;-144.77;100.00;61770.03;4997892;28;8794;-83
2021/07/10 11:00:31;;;;;;;;;4.50;4.25;;;;;-144.77;100.00;61770.03;4998157;28;8794;-84
2021/07/10 11:03:14;;;;;;;;;2.00;2.00;;;;;-144.77;100.00;61770.03;4997982;28;8798;-83
2021/07/10 11:05:41;;;;;;;;;4.00;3.00;;;;;-144.77;100.00;61770.03;4967154;28;8826;-84
2021/07/10 11:08:19;;;;;;;;;2.00;2.00;;;;;-144.77;100.00;61770.03;4998052;28;8936;-83
2021/07/10 11:11:00;;;;;;;;;3.25;2.50;;;;;-144.77;100.00;61770.03;4997970;28;8750;-83
2021/07/10 11:13:36;;;;;;;;;5.50;5.00;;;;;-144.77;100.00;61770.03;4997320;28;9736;-83
2021/07/10 11:16:07;;;;;;;;;4.00;4.00;;;;;-144.77;100.00;61770.03;4987089;28;8936;-83
2021/07/10 11:18:56;;;;;;;;;3.25;3.00;;;;;-144.77;100.00;61770.03;4997966;28;8762;-83
2021/07/10 11:21:41;;;;;;;;;2.50;2.00;;;;;-144.77;100.00;61770.03;4997703;28;8792;-83